createdAt,value
2019-05-10T00:01:10.846Z,13.22
2019-05-10T00:03:59.276Z,13.10
2019-05-10T00:06:48.033Z,15.88
2019-05-10T00:09:17.784Z,14.33
2019-05-10T00:11:49.791Z,14.10
2019-05-10T00:14:31.161Z,14.70
2019-05-10T00:17:03.199Z,11.65
2019-05-10T00:19:33.946Z,10.03
2019-05-10T00:22:04.420Z,9.15
2019-05-10T00:24:34.952Z,13.38
2019-05-10T00:27:05.439Z,10.40
2019-05-10T00:29:35.930Z,11.12
2019-05-10T00:32:06.447Z,11.90
2019-05-10T00:34:36.967Z,13.58
2019-05-10T00:37:07.518Z,10.50
2019-05-10T00:39:38.459Z,11.03
2019-05-10T00:42:09.465Z,9.83
2019-05-10T00:44:40.043Z,11.18
2019-05-10T00:47:10.460Z,10.53
2019-05-10T00:49:41.104Z,10.00
2019-05-10T00:52:11.669Z,10.35
2019-05-10T00:54:42.359Z,9.15
2019-05-10T00:57:12.927Z,9.40
2019-05-10T00:59:43.582Z,9.75
2019-05-10T01:02:14.096Z,8.80
2019-05-10T01:04:44.735Z,12.53
2019-05-10T01:07:15.457Z,11.75
2019-05-10T01:09:45.993Z,12.70
2019-05-10T01:12:16.599Z,11.10
2019-05-10T01:14:46.998Z,12.28
2019-05-10T01:17:17.543Z,10.40
2019-05-10T01:19:48.057Z,9.73
2019-05-10T01:22:18.469Z,9.93
2019-05-10T01:24:48.939Z,12.60
2019-05-10T01:27:19.453Z,12.33
2019-05-10T01:29:50.056Z,11.22
2019-05-10T01:32:20.580Z,11.70
2019-05-10T01:34:51.353Z,11.60
2019-05-10T01:37:21.720Z,14.28
2019-05-10T01:39:53.559Z,11.97
2019-05-10T01:42:24.001Z,11.48
2019-05-10T01:44:54.671Z,12.10
2019-05-10T01:47:25.665Z,10.88
2019-05-10T01:49:56.195Z,12.58
2019-05-10T01:52:26.774Z,17.27
2019-05-10T01:54:57.107Z,11.03
2019-05-10T01:57:27.623Z,9.83
2019-05-10T01:59:58.107Z,8.33
2019-05-10T02:02:28.560Z,9.55
2019-05-10T02:04:59.163Z,9.65
2019-05-10T02:07:29.638Z,8.50
2019-05-10T02:10:00.164Z,8.63
2019-05-10T02:12:30.550Z,7.60
2019-05-10T02:15:01.050Z,10.03
2019-05-10T02:17:31.666Z,9.85
2019-05-10T02:20:02.152Z,10.93
2019-05-10T02:22:32.721Z,11.73
2019-05-10T02:25:03.316Z,10.45
2019-05-10T02:27:34.037Z,12.40
2019-05-10T02:30:05.140Z,19.75
2019-05-10T02:32:35.765Z,14.87
2019-05-10T02:35:07.859Z,15.70
2019-05-10T02:37:38.456Z,16.17
2019-05-10T02:40:09.120Z,14.93
2019-05-10T02:42:39.746Z,16.37
2019-05-10T02:45:10.225Z,16.87
2019-05-10T02:47:40.619Z,17.77
2019-05-10T02:50:11.287Z,17.40
2019-05-10T02:52:41.771Z,16.57
2019-05-10T02:55:13.016Z,15.60
2019-05-10T02:57:43.670Z,12.50
2019-05-10T03:00:14.280Z,18.10
2019-05-10T03:02:44.900Z,15.80
2019-05-10T03:05:15.430Z,16.93
2019-05-10T03:07:45.902Z,18.95
2019-05-10T03:10:16.745Z,20.55
2019-05-10T03:12:47.192Z,23.07
2019-05-10T03:15:17.776Z,25.30
2019-05-10T03:17:48.237Z,20.02
2019-05-10T03:20:18.993Z,17.25
2019-05-10T03:22:49.574Z,18.20
2019-05-10T03:25:20.218Z,18.62
2019-05-10T03:27:50.726Z,18.40
2019-05-10T03:30:21.288Z,18.87
2019-05-10T03:32:51.907Z,23.50
2019-05-10T03:35:22.500Z,23.12
2019-05-10T03:37:53.064Z,21.20
2019-05-10T03:40:23.626Z,20.08
2019-05-10T03:42:54.187Z,20.68
2019-05-10T03:45:24.669Z,23.52
2019-05-10T03:47:55.988Z,24.25
2019-05-10T03:50:26.609Z,26.97
2019-05-10T03:52:57.162Z,26.17
2019-05-10T03:55:27.815Z,26.80
2019-05-10T03:57:58.790Z,27.95
2019-05-10T04:00:29.578Z,27.70
2019-05-10T04:03:00.564Z,29.35
2019-05-10T04:05:31.138Z,28.55
2019-05-10T04:08:01.775Z,29.63
2019-05-10T04:10:32.389Z,27.93
2019-05-10T04:13:03.181Z,28.07
2019-05-10T04:15:33.793Z,29.48
2019-05-10T04:18:04.377Z,30.20
2019-05-10T04:20:34.906Z,30.52
2019-05-10T04:23:05.890Z,29.50
2019-05-10T04:25:36.368Z,27.60
2019-05-10T04:28:07.016Z,27.45
2019-05-10T04:30:37.670Z,30.48
2019-05-10T04:33:08.199Z,29.70
2019-05-10T04:35:38.897Z,28.12
2019-05-10T04:40:39.445Z,29.95
2019-05-10T04:43:09.938Z,29.00
2019-05-10T04:45:40.636Z,32.78
2019-05-10T04:48:11.442Z,34.30
2019-05-10T04:50:41.952Z,34.83
2019-05-10T04:53:12.576Z,30.23
2019-05-10T04:55:43.056Z,32.75
2019-05-10T04:58:13.662Z,38.35
2019-05-10T05:00:44.216Z,34.60
2019-05-10T05:03:14.796Z,35.35
2019-05-10T05:05:45.329Z,33.25
2019-05-10T05:08:15.823Z,33.40
2019-05-10T05:10:46.589Z,32.00
2019-05-10T05:13:17.149Z,33.42
2019-05-10T05:15:47.715Z,33.23
2019-05-10T05:18:18.207Z,35.13
2019-05-10T05:20:48.669Z,33.00
2019-05-10T05:23:19.181Z,35.00
2019-05-10T05:25:49.739Z,32.03
2019-05-10T05:28:23.353Z,31.70
2019-05-10T05:30:52.624Z,30.90
2019-05-10T05:33:23.192Z,35.38
2019-05-10T05:35:54.336Z,33.65
2019-05-10T05:38:25.038Z,34.25
2019-05-10T05:40:55.584Z,33.78
2019-05-10T05:43:26.269Z,33.48
2019-05-10T05:45:57.965Z,34.08
2019-05-10T05:48:40.088Z,34.88
2019-05-10T05:51:01.101Z,33.85
2019-05-10T05:53:35.756Z,31.23
2019-05-10T05:56:12.336Z,29.15
2019-05-10T05:58:55.066Z,30.43
2019-05-10T06:01:29.257Z,30.57
2019-05-10T06:04:00.317Z,29.45
2019-05-10T06:06:31.163Z,31.82
2019-05-10T06:09:01.885Z,32.00
2019-05-10T06:11:37.707Z,34.30
2019-05-10T06:14:10.600Z,34.25
2019-05-10T06:16:44.795Z,30.82
2019-05-10T06:19:11.939Z,31.30
2019-05-10T06:21:42.545Z,32.40
2019-05-10T06:24:15.565Z,34.13
2019-05-10T06:26:45.369Z,28.95
2019-05-10T06:29:17.760Z,29.15
2019-05-10T06:31:47.985Z,30.02
2019-05-10T06:34:18.641Z,32.28
2019-05-10T06:36:49.273Z,35.70
2019-05-10T06:39:19.700Z,32.35
2019-05-10T06:41:55.988Z,30.45
2019-05-10T06:44:24.999Z,29.92
2019-05-10T06:46:54.819Z,29.23
2019-05-10T06:49:25.395Z,33.30
2019-05-10T06:51:55.965Z,28.42
2019-05-10T06:54:26.529Z,30.32
2019-05-10T06:56:57.586Z,28.85
2019-05-10T06:59:28.036Z,29.45
2019-05-10T07:01:58.780Z,26.23
2019-05-10T07:04:34.509Z,26.95
2019-05-10T07:07:02.037Z,27.32
2019-05-10T07:10:00.532Z,24.70
2019-05-10T07:12:09.474Z,26.30
2019-05-10T07:14:44.985Z,27.85
2019-05-10T07:17:09.712Z,25.50
2019-05-10T07:19:42.003Z,23.62
2019-05-10T07:22:14.297Z,27.75
2019-05-10T07:24:44.876Z,26.40
2019-05-10T07:27:15.446Z,25.62
2019-05-10T07:29:46.217Z,26.68
2019-05-10T07:32:22.101Z,24.95
2019-05-10T07:34:58.959Z,25.65
2019-05-10T07:37:22.662Z,23.92
2019-05-10T07:39:53.156Z,25.90
2019-05-10T07:42:23.727Z,28.67
2019-05-10T07:44:54.220Z,25.97
2019-05-10T07:47:30.274Z,23.98
2019-05-10T07:49:56.972Z,24.37
2019-05-10T07:52:27.754Z,23.22
2019-05-10T07:54:58.502Z,23.10
2019-05-10T07:57:29.019Z,24.07
2019-05-10T08:00:03.591Z,23.95
2019-05-10T08:02:32.264Z,24.07
2019-05-10T08:05:04.837Z,23.45
2019-05-10T08:07:35.278Z,24.13
2019-05-10T08:10:08.504Z,24.87
2019-05-10T08:12:41.397Z,24.00
2019-05-10T08:15:12.016Z,24.18
2019-05-10T08:17:45.590Z,23.18
2019-05-10T08:20:25.804Z,26.95
2019-05-10T08:22:47.288Z,28.98
2019-05-10T08:25:18.225Z,28.07
2019-05-10T08:27:51.200Z,27.22
2019-05-10T08:30:51.748Z,27.30
2019-05-10T08:33:14.599Z,25.17
2019-05-10T08:35:46.518Z,24.90
2019-05-10T08:38:16.657Z,27.25
2019-05-10T08:40:47.207Z,25.43
2019-05-10T08:43:17.785Z,25.40
2019-05-10T08:45:49.751Z,24.57
2019-05-10T08:48:23.370Z,23.40
2019-05-10T08:50:57.425Z,24.30
2019-05-10T08:53:25.792Z,25.62
2019-05-10T08:55:58.772Z,22.87
2019-05-10T08:58:34.922Z,23.80
2019-05-10T09:01:16.254Z,23.30
2019-05-10T09:03:34.003Z,21.77
2019-05-10T09:06:11.665Z,23.87
2019-05-10T09:08:37.180Z,23.05
2019-05-10T09:11:07.674Z,21.50
2019-05-10T09:13:41.469Z,21.42
2019-05-10T09:16:10.512Z,20.68
2019-05-10T09:18:46.691Z,19.48
2019-05-10T09:21:14.266Z,20.92
2019-05-10T09:23:45.116Z,19.10
2019-05-10T09:26:16.644Z,21.77
2019-05-10T09:28:52.263Z,20.27
2019-05-10T09:31:22.847Z,17.97
2019-05-10T09:33:54.291Z,18.42
2019-05-10T09:36:31.303Z,16.67
2019-05-10T09:38:56.932Z,21.10
2019-05-10T09:41:32.898Z,19.55
2019-05-10T09:43:59.795Z,18.40
2019-05-10T09:46:32.382Z,20.35
2019-05-10T09:49:06.764Z,18.20
2019-05-10T09:51:34.577Z,18.90
2019-05-10T09:54:07.436Z,17.75
2019-05-10T09:56:41.348Z,18.23
2019-05-10T09:59:09.380Z,17.17
2019-05-10T10:01:39.906Z,17.67
2019-05-10T10:04:10.591Z,20.90
2019-05-10T10:06:41.885Z,20.15
2019-05-10T10:09:13.671Z,18.30
2019-05-10T10:11:48.614Z,18.02
2019-05-10T10:14:17.935Z,18.63
2019-05-10T10:16:57.851Z,18.20
2019-05-10T10:19:24.344Z,19.15
2019-05-10T10:21:53.416Z,18.30
2019-05-10T10:24:23.969Z,20.43
2019-05-10T10:26:56.011Z,19.62
2019-05-10T10:29:28.641Z,20.60
2019-05-10T10:31:59.136Z,20.50
2019-05-10T10:34:32.661Z,21.37
2019-05-10T10:37:02.125Z,20.65
2019-05-10T10:39:37.174Z,20.17
2019-05-10T10:42:12.913Z,23.35
2019-05-10T10:44:40.571Z,21.33
2019-05-10T10:47:11.237Z,23.27
2019-05-10T10:49:41.936Z,21.93
2019-05-10T10:52:13.570Z,23.07
2019-05-10T10:54:44.670Z,22.85
2019-05-10T10:57:17.913Z,24.02
2019-05-10T10:59:47.763Z,21.33
2019-05-10T11:02:32.684Z,21.30
2019-05-10T11:04:51.459Z,18.92
2019-05-10T11:07:22.232Z,20.82
2019-05-10T11:10:04.661Z,23.12
2019-05-10T11:12:26.386Z,21.70
2019-05-10T11:14:57.186Z,20.20
2019-05-10T11:17:27.986Z,22.93
2019-05-10T11:20:00.271Z,24.40
2019-05-10T11:22:31.823Z,21.33
2019-05-10T11:25:09.067Z,19.82
2019-05-10T11:27:34.737Z,19.62
2019-05-10T11:30:07.414Z,22.58
2019-05-10T11:32:38.405Z,23.15
2019-05-10T11:35:11.791Z,21.35
2019-05-10T11:37:45.381Z,19.80
2019-05-10T11:40:18.015Z,20.68
2019-05-10T11:42:47.621Z,19.70
2019-05-10T11:45:20.758Z,21.85
2019-05-10T11:47:54.485Z,19.70
2019-05-10T11:50:31.320Z,21.40
2019-05-10T11:52:55.421Z,25.08
2019-05-10T11:55:26.148Z,19.87
2019-05-10T11:58:02.913Z,19.45
2019-05-10T12:00:33.601Z,18.35
2019-05-10T12:03:07.925Z,21.82
2019-05-10T12:05:34.742Z,20.08
2019-05-10T12:08:05.831Z,19.95
2019-05-10T12:10:44.889Z,20.43
2019-05-10T12:15:42.939Z,23.42
2019-05-10T12:18:14.846Z,24.12
2019-05-10T12:20:55.676Z,20.48
2019-05-10T12:23:24.824Z,22.35
2019-05-10T12:26:19.913Z,20.05
2019-05-10T12:26:27.645Z,20.88
2019-05-10T12:28:28.503Z,19.60
2019-05-10T12:30:55.696Z,19.57
2019-05-10T12:33:27.741Z,17.50
2019-05-10T12:35:58.678Z,17.87
2019-05-10T12:38:31.734Z,18.12
2019-05-10T12:41:05.005Z,16.75
2019-05-10T12:43:33.649Z,15.55
2019-05-10T12:46:04.277Z,18.98
2019-05-10T12:48:35.920Z,18.30
2019-05-10T12:51:11.529Z,18.82
2019-05-10T12:53:44.668Z,20.82
2019-05-10T12:56:12.423Z,21.52
2019-05-10T12:58:43.123Z,20.17
2019-05-10T13:01:13.732Z,20.55
2019-05-10T13:03:44.883Z,20.37
2019-05-10T13:06:19.147Z,19.55
2019-05-10T13:08:47.973Z,20.77
2019-05-10T13:11:24.503Z,21.10
2019-05-10T13:13:50.751Z,19.67
2019-05-10T13:16:21.524Z,19.40
2019-05-10T13:18:52.801Z,17.95
2019-05-10T13:21:23.607Z,17.15
2019-05-10T13:23:55.376Z,19.57
2019-05-10T13:26:26.075Z,20.97
2019-05-10T13:29:01.965Z,19.77
2019-05-10T13:31:30.078Z,18.77
2019-05-10T13:34:01.267Z,19.37
2019-05-10T13:36:37.414Z,19.10
2019-05-10T13:39:04.982Z,19.57
2019-05-10T13:41:35.775Z,21.57
2019-05-10T13:44:06.564Z,22.87
2019-05-10T13:46:37.424Z,18.70
2019-05-10T13:49:08.099Z,23.52
2019-05-10T13:51:39.319Z,19.02
2019-05-10T13:54:09.913Z,19.45
2019-05-10T13:56:45.513Z,20.02
2019-05-10T13:59:17.660Z,19.67
2019-05-10T14:01:49.792Z,21.07
2019-05-10T14:04:17.897Z,19.95
2019-05-10T14:06:48.519Z,20.02
2019-05-10T14:09:21.050Z,20.43
2019-05-10T14:11:52.030Z,19.57
2019-05-10T14:14:26.629Z,18.98
2019-05-10T14:16:55.481Z,20.00
2019-05-10T14:19:26.358Z,19.65
2019-05-10T14:21:57.538Z,19.98
2019-05-10T14:24:28.133Z,22.13
2019-05-10T14:27:00.069Z,23.60
2019-05-10T14:29:34.439Z,18.40
2019-05-10T14:32:04.117Z,20.00
2019-05-10T14:34:37.663Z,19.32
2019-05-10T14:37:07.053Z,18.70
2019-05-10T14:39:38.178Z,18.98
2019-05-10T14:42:09.505Z,21.40
2019-05-10T14:44:40.298Z,17.92
2019-05-10T14:47:11.265Z,19.77
2019-05-10T14:49:46.886Z,18.77
2019-05-10T14:52:14.692Z,21.73
2019-05-10T14:54:49.955Z,20.77
2019-05-10T14:57:17.923Z,18.62
2019-05-10T14:59:48.780Z,18.57
2019-05-10T15:02:22.762Z,19.67
2019-05-10T15:04:51.821Z,17.12
2019-05-10T15:07:22.667Z,17.02
2019-05-10T15:09:54.377Z,16.90
2019-05-10T15:12:25.649Z,16.57
2019-05-10T15:14:56.610Z,20.20
2019-05-10T15:17:30.090Z,18.10
2019-05-10T15:20:00.205Z,18.80
2019-05-10T15:22:32.138Z,18.40
2019-05-10T15:25:03.399Z,15.38
2019-05-10T15:27:37.352Z,16.17
2019-05-10T15:30:08.568Z,16.37
2019-05-10T15:32:39.473Z,16.10
2019-05-10T15:35:10.233Z,17.50
2019-05-10T15:37:46.015Z,17.55
2019-05-10T15:40:14.088Z,19.25
2019-05-10T15:42:44.694Z,18.42
2019-05-10T15:45:18.883Z,14.87
2019-05-10T15:47:51.520Z,15.53
2019-05-10T15:50:20.477Z,17.02
2019-05-10T15:52:51.255Z,15.05
2019-05-10T15:57:57.580Z,16.85
2019-05-10T15:59:23.581Z,14.90
2019-05-10T16:00:37.453Z,16.15
2019-05-10T16:02:59.314Z,17.15
2019-05-10T16:05:42.948Z,15.90
2019-05-10T16:08:02.848Z,17.85
2019-05-10T16:10:39.495Z,15.93
2019-05-10T16:13:06.344Z,14.25
2019-05-10T16:15:36.867Z,15.90
2019-05-10T16:18:07.609Z,14.10
2019-05-10T16:20:39.076Z,15.38
2019-05-10T16:23:11.248Z,14.73
2019-05-10T16:25:47.906Z,16.93
2019-05-10T16:30:47.162Z,14.58
2019-05-10T16:33:18.202Z,18.40
2019-05-10T16:35:49.860Z,14.23
2019-05-10T16:38:21.526Z,17.00
2019-05-10T16:40:58.668Z,18.00
2019-05-10T16:43:24.879Z,16.75
2019-05-10T16:45:55.767Z,15.38
2019-05-10T16:48:28.401Z,19.27
2019-05-10T16:51:03.671Z,17.98
2019-05-10T16:53:31.478Z,16.00
2019-05-10T16:56:02.718Z,18.98
2019-05-10T16:58:33.728Z,16.48
2019-05-10T17:01:04.423Z,18.85
2019-05-10T17:03:35.155Z,18.27
2019-05-10T17:06:05.841Z,16.87
2019-05-10T17:08:38.637Z,13.78
2019-05-10T17:11:11.949Z,12.47
2019-05-10T17:13:43.265Z,12.82
2019-05-10T17:16:17.076Z,12.47
2019-05-10T17:18:50.064Z,15.32
2019-05-10T17:21:19.447Z,13.03
2019-05-10T17:23:49.999Z,14.23
2019-05-10T17:26:21.105Z,13.22
2019-05-10T17:28:53.175Z,13.93
2019-05-10T17:31:24.585Z,11.68
2019-05-10T17:33:55.427Z,13.00
2019-05-10T17:36:27.790Z,12.40
2019-05-10T17:38:58.479Z,15.32
2019-05-10T17:41:30.564Z,11.00
2019-05-10T17:44:03.023Z,11.70
2019-05-10T17:46:34.745Z,12.25
2019-05-10T17:49:05.613Z,12.73
2019-05-10T17:51:36.427Z,12.88
2019-05-10T17:54:07.389Z,13.05
2019-05-10T17:56:39.121Z,13.95
2019-05-10T17:59:11.907Z,12.88
2019-05-10T18:01:42.639Z,11.03
2019-05-10T18:04:13.229Z,11.75
2019-05-10T18:06:43.972Z,10.78
2019-05-10T18:09:14.697Z,15.08
2019-05-10T18:11:45.186Z,17.42
2019-05-10T18:14:17.824Z,13.68
2019-05-10T18:16:50.196Z,14.63
2019-05-10T18:19:24.643Z,10.78
2019-05-10T18:24:30.229Z,12.88
2019-05-10T18:26:57.721Z,11.80
2019-05-10T18:29:28.443Z,11.43
2019-05-10T18:31:58.962Z,10.53
2019-05-10T18:34:32.890Z,10.05
2019-05-10T18:37:02.376Z,11.65
2019-05-10T18:39:34.262Z,11.97
2019-05-10T18:42:06.064Z,10.65
2019-05-10T18:44:36.787Z,12.53
2019-05-10T18:47:07.990Z,10.98
2019-05-10T18:49:40.394Z,10.40
2019-05-10T18:52:11.244Z,10.32
2019-05-10T18:54:41.931Z,10.30
2019-05-10T18:57:18.767Z,12.73
2019-05-10T18:59:46.896Z,14.47
2019-05-10T19:02:18.386Z,16.17
2019-05-10T19:04:54.195Z,15.63
2019-05-10T19:07:23.042Z,18.37
2019-05-10T19:09:54.145Z,13.43
2019-05-10T19:12:25.359Z,18.27
2019-05-10T19:15:02.416Z,16.07
2019-05-10T19:19:59.475Z,14.00
2019-05-10T19:22:30.580Z,16.55
2019-05-10T19:25:10.367Z,15.00
2019-05-10T19:27:38.825Z,14.98
2019-05-10T19:30:09.945Z,17.70
2019-05-10T19:32:42.741Z,15.95
2019-05-10T19:35:14.846Z,15.58
2019-05-10T19:37:45.504Z,17.32
2019-05-10T19:40:16.365Z,15.08
2019-05-10T19:42:49.607Z,15.88
2019-05-10T19:45:21.224Z,17.82
2019-05-10T19:47:55.657Z,15.72
2019-05-10T19:50:30.720Z,14.68
2019-05-10T19:52:58.516Z,15.35
2019-05-10T19:55:29.227Z,16.10
2019-05-10T19:58:00.169Z,17.65
2019-05-10T20:00:30.862Z,16.40
2019-05-10T20:03:02.639Z,17.02
2019-05-10T20:05:34.513Z,18.45
2019-05-10T20:08:05.117Z,16.95
2019-05-10T20:10:35.704Z,15.32
2019-05-10T20:13:06.621Z,15.55
2019-05-10T20:15:38.115Z,14.60
2019-05-10T20:18:08.696Z,15.35
2019-05-10T20:20:39.352Z,16.37
2019-05-10T20:23:10.649Z,16.77
2019-05-10T20:25:41.445Z,14.60
2019-05-10T20:28:13.138Z,16.87
2019-05-10T20:30:46.272Z,13.88
2019-05-10T20:33:18.459Z,16.20
2019-05-10T20:35:49.149Z,14.80
2019-05-10T20:38:20.062Z,14.75
2019-05-10T20:40:50.847Z,15.55
2019-05-10T20:43:21.446Z,15.48
2019-05-10T20:45:52.195Z,13.20
2019-05-10T20:48:22.705Z,15.78
2019-05-10T20:50:53.295Z,12.82
2019-05-10T20:53:26.380Z,14.70
2019-05-10T20:55:57.092Z,14.15
2019-05-10T20:58:27.552Z,14.60
2019-05-10T21:00:58.184Z,12.93
2019-05-10T21:03:28.721Z,12.58
2019-05-10T21:05:59.274Z,14.65
2019-05-10T21:08:30.116Z,13.95
2019-05-10T21:11:00.846Z,14.03
2019-05-10T21:13:31.485Z,11.68
2019-05-10T21:16:02.196Z,12.90
2019-05-10T21:18:33.050Z,13.25
2019-05-10T21:21:03.525Z,13.10
2019-05-10T21:23:34.509Z,12.63
2019-05-10T21:26:05.058Z,15.20
2019-05-10T21:28:35.876Z,15.53
2019-05-10T21:31:06.611Z,14.90
2019-05-10T21:33:37.169Z,18.00
2019-05-10T21:36:07.779Z,14.10
2019-05-10T21:38:41.553Z,15.38
2019-05-10T21:41:10.556Z,15.23
2019-05-10T21:43:42.775Z,16.67
2019-05-10T21:46:13.651Z,13.00
2019-05-10T21:48:44.160Z,15.15
2019-05-10T21:51:16.116Z,17.92
2019-05-10T21:53:46.735Z,17.60
2019-05-10T21:56:17.363Z,13.53
2019-05-10T21:58:47.876Z,13.10
2019-05-10T22:01:18.491Z,14.40
2019-05-10T22:03:49.117Z,15.53
2019-05-10T22:06:19.907Z,14.63
2019-05-10T22:08:50.543Z,20.45
2019-05-10T22:11:21.494Z,15.25
2019-05-10T22:13:52.212Z,16.15
2019-05-10T22:16:23.119Z,17.05
2019-05-10T22:19:01.416Z,13.62
2019-05-10T22:21:32.233Z,17.02
2019-05-10T22:24:04.396Z,14.35
2019-05-10T22:26:34.996Z,18.35
2019-05-10T22:29:05.552Z,15.75
2019-05-10T22:31:36.517Z,19.45
2019-05-10T22:34:07.690Z,16.93
2019-05-10T22:36:38.313Z,16.90
2019-05-10T22:39:09.140Z,18.02
2019-05-10T22:41:39.600Z,17.35
2019-05-10T22:44:10.271Z,16.80
2019-05-10T22:46:40.932Z,14.68
2019-05-10T22:49:11.545Z,20.80
2019-05-10T22:51:42.170Z,16.90
2019-05-10T22:54:13.071Z,20.72
2019-05-10T22:56:44.173Z,19.62
2019-05-10T22:59:14.739Z,16.65
2019-05-10T23:01:45.363Z,19.67
2019-05-10T23:04:16.203Z,18.25
2019-05-10T23:06:47.095Z,18.62
2019-05-10T23:09:24.762Z,16.67
2019-05-10T23:11:49.916Z,18.07
2019-05-10T23:14:20.897Z,19.60
2019-05-10T23:16:51.615Z,20.27
2019-05-10T23:19:22.295Z,22.82
2019-05-10T23:21:52.904Z,19.15
2019-05-10T23:24:40.197Z,18.87
2019-05-10T23:27:10.905Z,19.98
2019-05-10T23:29:41.781Z,22.52
2019-05-10T23:32:12.446Z,20.05
2019-05-10T23:34:43.076Z,19.95
2019-05-10T23:37:13.765Z,18.67
2019-05-10T23:39:44.867Z,21.35
2019-05-10T23:42:15.516Z,18.15
2019-05-10T23:44:46.162Z,19.57
2019-05-10T23:47:17.096Z,17.92
2019-05-10T23:49:47.714Z,18.17
2019-05-10T23:52:19.539Z,20.08
2019-05-10T23:54:50.056Z,19.25
2019-05-10T23:57:20.957Z,18.02
2019-05-10T23:59:51.462Z,22.22
